Time;durP1;ratioP1;P1;durP2;ratioP2;P2;SDS_P1;SDS_P2;PMS_P1;PMS_P2;Temp;Humidity;BMP_temperature;BMP_pressure;BME280_temperature;BME280_humidity;BME280_pressure;Samples;Min_cycle;Max_cycle;Signal;HPM_P1;HPM_P2
2023/04/15 00:00:19;;;;;;;4.90;2.33;;;;;;;;;;4977640;28;20180;-79
2023/04/15 00:02:45;;;;;;;3.80;2.40;;;;;;;;;;4994293;28;20266;-79
2023/04/15 00:05:11;;;;;;;4.20;3.03;;;;;;;;;;4977224;28;20477;-79
2023/04/15 00:07:37;;;;;;;4.10;2.00;;;;;;;;;;4994943;28;20520;-79
2023/04/15 00:10:06;;;;;;;2.80;1.80;;;;;;;;;;4977096;28;20975;-79
2023/04/15 00:12:32;;;;;;;3.77;1.97;;;;;;;;;;4977297;28;20428;-80
2023/04/15 00:14:58;;;;;;;4.03;2.40;;;;;;;;;;4977554;28;20420;-80
2023/04/15 00:17:24;;;;;;;3.30;2.40;;;;;;;;;;4976105;28;20451;-80
2023/04/15 00:19:51;;;;;;;3.20;2.27;;;;;;;;;;4994678;28;20531;-80
2023/04/15 00:22:17;;;;;;;3.70;2.37;;;;;;;;;;4961288;28;20439;-80
2023/04/15 00:24:43;;;;;;;3.37;1.40;;;;;;;;;;4977383;28;20432;-80
2023/04/15 00:27:09;;;;;;;3.97;2.30;;;;;;;;;;4977214;28;20536;-80
2023/04/15 00:29:35;;;;;;;4.50;2.93;;;;;;;;;;4994747;28;20416;-80
2023/04/15 00:32:01;;;;;;;2.67;1.87;;;;;;;;;;4994280;28;20422;-80
2023/04/15 00:34:27;;;;;;;3.17;1.63;;;;;;;;;;4994644;28;20211;-79
2023/04/15 00:36:53;;;;;;;2.63;2.23;;;;;;;;;;4994565;28;20423;-79
2023/04/15 00:39:19;;;;;;;3.67;2.67;;;;;;;;;;4994539;28;20419;-79
2023/04/15 00:41:46;;;;;;;2.87;2.30;;;;;;;;;;4994284;28;20425;-79
2023/04/15 00:44:11;;;;;;;3.13;1.60;;;;;;;;;;4994370;28;20419;-79
2023/04/15 00:46:41;;;;;;;3.00;2.00;;;;;;;;;;4993773;28;20480;-79
2023/04/15 00:49:07;;;;;;;4.43;1.80;;;;;;;;;;4960789;28;20440;-79
2023/04/15 00:51:35;;;;;;;3.17;2.00;;;;;;;;;;4994040;28;20513;-80
2023/04/15 00:54:06;;;;;;;3.10;1.53;;;;;;;;;;4994411;28;20413;-79
2023/04/15 00:56:35;;;;;;;3.97;2.10;;;;;;;;;;4994178;28;20417;-78
2023/04/15 00:59:01;;;;;;;2.70;1.50;;;;;;;;;;4976736;28;20416;-79
2023/04/15 01:01:28;;;;;;;2.70;2.10;;;;;;;;;;4976287;28;20447;-78
2023/04/15 01:03:55;;;;;;;3.17;1.83;;;;;;;;;;4990647;28;20482;-79
2023/04/15 01:06:21;;;;;;;3.20;1.57;;;;;;;;;;4985260;28;20486;-79
2023/04/15 01:08:47;;;;;;;2.63;1.43;;;;;;;;;;4994090;28;20902;-79
2023/04/15 01:11:13;;;;;;;5.53;2.17;;;;;;;;;;4994046;28;20417;-79
2023/04/15 01:13:39;;;;;;;3.20;1.73;;;;;;;;;;4993931;28;20451;-79
2023/04/15 01:16:06;;;;;;;2.80;1.90;;;;;;;;;;4993590;28;20847;-79
2023/04/15 01:18:32;;;;;;;3.17;2.17;;;;;;;;;;4993852;28;20771;-78
2023/04/15 01:20:59;;;;;;;2.90;1.67;;;;;;;;;;4953784;28;20455;-78
2023/04/15 01:23:26;;;;;;;3.87;2.17;;;;;;;;;;4992691;28;20419;-79
2023/04/15 01:25:52;;;;;;;3.40;1.87;;;;;;;;;;4993790;28;20457;-80
2023/04/15 01:28:19;;;;;;;2.40;1.10;;;;;;;;;;4993521;28;20452;-80
2023/04/15 01:30:45;;;;;;;3.00;1.50;;;;;;;;;;4993777;28;21027;-79
2023/04/15 01:33:11;;;;;;;4.20;1.63;;;;;;;;;;4993441;28;20516;-80
2023/04/15 01:35:37;;;;;;;3.33;1.77;;;;;;;;;;4976333;28;20514;-79
2023/04/15 01:38:05;;;;;;;3.00;1.83;;;;;;;;;;4993625;28;20179;-79
2023/04/15 01:40:31;;;;;;;2.17;1.40;;;;;;;;;;4993604;28;20478;-78
2023/04/15 01:42:57;;;;;;;4.97;2.83;;;;;;;;;;4993696;28;20418;-79
2023/04/15 01:45:26;;;;;;;3.60;2.07;;;;;;;;;;4993501;28;20428;-78
2023/04/15 01:47:52;;;;;;;3.50;2.60;;;;;;;;;;4993178;28;20463;-78
2023/04/15 01:50:19;;;;;;;3.40;2.80;;;;;;;;;;4993481;28;20466;-79
2023/04/15 01:52:45;;;;;;;2.27;1.70;;;;;;;;;;4993568;28;20812;-78
2023/04/15 01:55:12;;;;;;;3.57;2.33;;;;;;;;;;4993494;28;20411;-79
2023/04/15 01:57:37;;;;;;;3.90;2.80;;;;;;;;;;4992754;28;20478;-80
2023/04/15 02:00:04;;;;;;;4.57;2.13;;;;;;;;;;4976032;28;20408;-79
2023/04/15 02:02:30;;;;;;;4.10;2.47;;;;;;;;;;4992816;28;20227;-80
2023/04/15 02:04:59;;;;;;;3.70;2.70;;;;;;;;;;4993397;28;20418;-80
2023/04/15 02:07:25;;;;;;;4.47;2.30;;;;;;;;;;4993317;28;20220;-79
2023/04/15 02:09:52;;;;;;;4.20;2.43;;;;;;;;;;4993483;28;20409;-79
2023/04/15 02:12:17;;;;;;;5.70;3.03;;;;;;;;;;4993170;28;20434;-77
2023/04/15 02:14:43;;;;;;;3.93;2.70;;;;;;;;;;4993287;28;20411;-80
2023/04/15 02:17:09;;;;;;;3.60;2.00;;;;;;;;;;4975517;28;20172;-79
2023/04/15 02:19:35;;;;;;;3.47;2.07;;;;;;;;;;4975920;28;20176;-79
2023/04/15 02:22:01;;;;;;;4.83;3.20;;;;;;;;;;4993225;28;20435;-79
2023/04/15 02:24:28;;;;;;;5.50;2.93;;;;;;;;;;4975775;28;20431;-78
2023/04/15 02:26:54;;;;;;;3.47;2.30;;;;;;;;;;4993117;28;20480;-81
2023/04/15 02:29:21;;;;;;;5.67;3.60;;;;;;;;;;4993200;28;20417;-80
2023/04/15 02:31:47;;;;;;;5.30;3.50;;;;;;;;;;4992851;28;20420;-80
2023/04/15 02:34:13;;;;;;;6.07;3.47;;;;;;;;;;4992971;28;20404;-79
2023/04/15 02:36:39;;;;;;;5.27;3.00;;;;;;;;;;4995533;28;20510;-79
2023/04/15 02:39:05;;;;;;;5.73;3.93;;;;;;;;;;4979360;28;20414;-79
2023/04/15 02:41:31;;;;;;;7.30;4.30;;;;;;;;;;4996785;28;20774;-80
2023/04/15 02:43:57;;;;;;;5.60;3.70;;;;;;;;;;4996714;28;20405;-80
2023/04/15 02:46:23;;;;;;;6.50;3.93;;;;;;;;;;4995870;28;20468;-80
2023/04/15 02:48:50;;;;;;;7.60;4.23;;;;;;;;;;4996614;28;20430;-79
2023/04/15 02:51:18;;;;;;;7.77;5.00;;;;;;;;;;4995986;28;20417;-80
2023/04/15 02:53:44;;;;;;;7.30;4.73;;;;;;;;;;4979158;28;20425;-80
2023/04/15 02:56:11;;;;;;;7.87;4.60;;;;;;;;;;4996413;28;20513;-79
2023/04/15 02:58:37;;;;;;;7.10;4.73;;;;;;;;;;4996385;28;20499;-80
2023/04/15 03:01:03;;;;;;;5.83;3.73;;;;;;;;;;4995825;28;20523;-79
2023/04/15 03:03:29;;;;;;;7.50;4.50;;;;;;;;;;4978656;28;20473;-80
2023/04/15 03:05:55;;;;;;;9.00;5.40;;;;;;;;;;4978782;28;20546;-78
2023/04/15 03:08:21;;;;;;;7.07;4.47;;;;;;;;;;4996126;28;20412;-79
2023/04/15 03:10:47;;;;;;;6.57;4.60;;;;;;;;;;4996092;28;20416;-79
2023/04/15 03:13:13;;;;;;;6.70;4.93;;;;;;;;;;4996123;28;20414;-78
2023/04/15 03:15:41;;;;;;;8.23;5.63;;;;;;;;;;4995763;28;20412;-78
2023/04/15 03:18:07;;;;;;;8.90;6.00;;;;;;;;;;4996104;28;20766;-79
2023/04/15 03:20:34;;;;;;;8.90;5.80;;;;;;;;;;4978464;28;20428;-78
2023/04/15 03:23:00;;;;;;;8.67;5.90;;;;;;;;;;4996023;28;20450;-78
2023/04/15 03:25:26;;;;;;;9.47;6.40;;;;;;;;;;4995761;28;20462;-77
2023/04/15 03:27:52;;;;;;;11.27;6.37;;;;;;;;;;4995822;28;20424;-78
2023/04/15 03:30:18;;;;;;;9.63;5.77;;;;;;;;;;4995610;28;20415;-80
2023/04/15 03:32:44;;;;;;;10.13;6.30;;;;;;;;;;4995469;28;20944;-78
2023/04/15 03:35:10;;;;;;;13.07;6.87;;;;;;;;;;4995781;28;20943;-78
2023/04/15 03:37:36;;;;;;;12.50;7.90;;;;;;;;;;4978222;28;20505;-78
2023/04/15 03:40:02;;;;;;;11.10;6.97;;;;;;;;;;4995646;28;20178;-78
2023/04/15 03:42:40;;;;;;;11.30;7.60;;;;;;;;;;4978106;28;20925;-78
2023/04/15 03:45:06;;;;;;;11.70;7.63;;;;;;;;;;4995697;28;20753;-79
2023/04/15 03:47:32;;;;;;;10.67;6.60;;;;;;;;;;4994572;28;20483;-78
2023/04/15 03:49:58;;;;;;;11.10;6.83;;;;;;;;;;4995503;28;20413;-78
2023/04/15 03:52:24;;;;;;;13.00;7.27;;;;;;;;;;4995358;28;20509;-78
2023/04/15 03:54:50;;;;;;;11.20;6.60;;;;;;;;;;4995427;28;20974;-78
2023/04/15 03:57:16;;;;;;;11.83;7.20;;;;;;;;;;4995495;28;20446;-78
2023/04/15 03:59:42;;;;;;;14.10;7.40;;;;;;;;;;4995366;28;20504;-78
2023/04/15 04:02:08;;;;;;;12.33;8.40;;;;;;;;;;4994718;28;20254;-77
2023/04/15 04:04:34;;;;;;;12.20;7.63;;;;;;;;;;4995094;28;20521;-78
2023/04/15 04:07:00;;;;;;;10.10;7.20;;;;;;;;;;4995062;28;20486;-78
2023/04/15 04:09:26;;;;;;;14.00;8.10;;;;;;;;;;4995179;28;20420;-78
2023/04/15 04:11:52;;;;;;;11.97;8.00;;;;;;;;;;4977606;28;20524;-77
2023/04/15 04:14:18;;;;;;;9.73;6.63;;;;;;;;;;4994035;28;20505;-78
2023/04/15 04:16:44;;;;;;;11.23;7.80;;;;;;;;;;4994727;28;20477;-78
2023/04/15 04:19:10;;;;;;;10.07;5.93;;;;;;;;;;4994736;28;20903;-77
2023/04/15 04:21:37;;;;;;;13.47;9.67;;;;;;;;;;4994792;28;20427;-78
2023/04/15 04:24:03;;;;;;;13.60;8.33;;;;;;;;;;4994923;28;20195;-78
2023/04/15 04:26:29;;;;;;;14.80;9.03;;;;;;;;;;4994649;28;20471;-78
2023/04/15 04:28:55;;;;;;;11.83;8.47;;;;;;;;;;4994736;28;20411;-78
2023/04/15 04:31:21;;;;;;;11.70;7.67;;;;;;;;;;4976995;28;20431;-77
2023/04/15 04:33:47;;;;;;;12.60;8.80;;;;;;;;;;4977233;28;20431;-77
2023/04/15 04:36:13;;;;;;;14.50;9.17;;;;;;;;;;4994767;28;20801;-78
2023/04/15 04:38:39;;;;;;;13.20;9.23;;;;;;;;;;4994715;28;20918;-77
2023/04/15 04:41:05;;;;;;;16.90;9.70;;;;;;;;;;4977188;28;20438;-77
2023/04/15 04:43:30;;;;;;;14.10;9.40;;;;;;;;;;4994672;28;20417;-77
2023/04/15 04:45:56;;;;;;;15.67;9.50;;;;;;;;;;4994131;28;20476;-77
2023/04/15 04:48:22;;;;;;;19.20;11.63;;;;;;;;;;4994394;28;20403;-78
2023/04/15 04:50:48;;;;;;;17.83;11.27;;;;;;;;;;4994596;28;20213;-78
2023/04/15 04:53:15;;;;;;;19.73;12.67;;;;;;;;;;4994394;28;20415;-78
2023/04/15 04:55:41;;;;;;;20.93;12.73;;;;;;;;;;4994512;28;20404;-78
2023/04/15 04:58:07;;;;;;;16.47;11.37;;;;;;;;;;4993532;28;20420;-78
2023/04/15 05:00:33;;;;;;;20.70;11.73;;;;;;;;;;4993881;28;20426;-75
2023/04/15 05:02:59;;;;;;;19.43;10.80;;;;;;;;;;4994106;28;20471;-77
2023/04/15 05:05:25;;;;;;;17.67;11.23;;;;;;;;;;4993929;28;20911;-76
2023/04/15 05:07:52;;;;;;;18.27;11.77;;;;;;;;;;4994183;28;20429;-75
2023/04/15 05:10:18;;;;;;;21.83;13.63;;;;;;;;;;4994132;28;20455;-75
2023/04/15 05:12:44;;;;;;;18.73;12.07;;;;;;;;;;4994059;28;20864;-76
2023/04/15 05:15:10;;;;;;;16.80;12.30;;;;;;;;;;4993722;28;20405;-75
2023/04/15 05:17:36;;;;;;;22.93;14.77;;;;;;;;;;4993981;28;20465;-75
2023/04/15 05:20:02;;;;;;;23.13;13.27;;;;;;;;;;4993915;28;20438;-75
2023/04/15 05:22:28;;;;;;;23.40;15.73;;;;;;;;;;4953422;28;20433;-75
2023/04/15 05:24:54;;;;;;;23.30;15.07;;;;;;;;;;4993875;28;20938;-75
2023/04/15 05:27:21;;;;;;;21.80;14.33;;;;;;;;;;4993859;28;20882;-75
2023/04/15 05:29:47;;;;;;;28.13;16.37;;;;;;;;;;4993824;28;20892;-75
2023/04/15 05:32:13;;;;;;;20.40;14.90;;;;;;;;;;4993421;28;20470;-75
2023/04/15 05:34:39;;;;;;;24.57;14.70;;;;;;;;;;4976326;28;20428;-75
2023/04/15 05:37:05;;;;;;;27.87;15.90;;;;;;;;;;4993717;28;20419;-75
2023/04/15 05:39:31;;;;;;;25.97;16.97;;;;;;;;;;4993682;28;20542;-75
2023/04/15 05:41:58;;;;;;;25.83;15.47;;;;;;;;;;4993707;28;20407;-76
2023/04/15 05:44:24;;;;;;;24.83;17.13;;;;;;;;;;4993622;28;20415;-75
2023/04/15 05:46:50;;;;;;;21.90;15.97;;;;;;;;;;4993232;28;20474;-75
2023/04/15 05:49:16;;;;;;;28.60;18.87;;;;;;;;;;4976164;28;20924;-76
2023/04/15 05:51:42;;;;;;;28.80;20.47;;;;;;;;;;4993655;28;20427;-77
2023/04/15 05:54:08;;;;;;;26.63;17.53;;;;;;;;;;4993592;28;20183;-78
2023/04/15 05:56:34;;;;;;;28.20;18.30;;;;;;;;;;4976050;28;20171;-77
2023/04/15 05:59:00;;;;;;;25.48;18.95;;;;;;;;;;4975762;28;20916;-78
2023/04/15 06:01:26;;;;;;;26.60;18.40;;;;;;;;;;4993193;28;20188;-78
2023/04/15 06:03:52;;;;;;;28.53;18.27;;;;;;;;;;4993379;28;20473;-78
2023/04/15 06:06:19;;;;;;;28.37;18.60;;;;;;;;;;4993450;28;20485;-79
2023/04/15 06:08:45;;;;;;;33.97;19.37;;;;;;;;;;4993408;28;20423;-78
2023/04/15 06:11:11;;;;;;;31.40;19.80;;;;;;;;;;4996968;28;20506;-78
2023/04/15 06:13:37;;;;;;;24.97;17.83;;;;;;;;;;4997419;28;20403;-78
2023/04/15 06:16:03;;;;;;;29.73;20.00;;;;;;;;;;4996981;28;20413;-78
2023/04/15 06:18:29;;;;;;;36.20;20.43;;;;;;;;;;4997395;28;20425;-78
2023/04/15 06:20:55;;;;;;;32.23;19.70;;;;;;;;;;4997285;28;20800;-78
2023/04/15 06:23:21;;;;;;;32.60;20.20;;;;;;;;;;4997317;28;20423;-78
2023/04/15 06:25:47;;;;;;;28.57;17.63;;;;;;;;;;4997109;28;20681;-78
2023/04/15 06:28:13;;;;;;;31.30;20.50;;;;;;;;;;4997024;28;20450;-77
2023/04/15 06:30:39;;;;;;;31.73;18.73;;;;;;;;;;4996760;28;20422;-78
2023/04/15 06:33:05;;;;;;;31.97;19.67;;;;;;;;;;4997035;28;20177;-78
2023/04/15 06:35:40;;;;;;;32.23;20.67;;;;;;;;;;4996844;28;20415;-78
2023/04/15 06:38:06;;;;;;;32.00;20.30;;;;;;;;;;4996950;28;20422;-77
2023/04/15 06:40:32;;;;;;;28.73;18.80;;;;;;;;;;4996859;28;20407;-78
2023/04/15 06:42:57;;;;;;;31.63;19.93;;;;;;;;;;4996763;28;20782;-78
2023/04/15 06:45:23;;;;;;;38.23;21.97;;;;;;;;;;4996511;28;20466;-78
2023/04/15 06:47:49;;;;;;;32.50;20.53;;;;;;;;;;4979173;28;20435;-78
2023/04/15 06:50:15;;;;;;;31.50;21.00;;;;;;;;;;4996786;28;20548;-77
2023/04/15 06:52:41;;;;;;;32.10;20.60;;;;;;;;;;4996627;28;20411;-78
2023/04/15 06:55:07;;;;;;;35.63;23.40;;;;;;;;;;4979149;28;20923;-78
2023/04/15 06:57:33;;;;;;;31.53;20.50;;;;;;;;;;4996567;28;20428;-78
2023/04/15 06:59:59;;;;;;;31.77;21.23;;;;;;;;;;4996185;28;20411;-78
2023/04/15 07:02:26;;;;;;;32.90;21.83;;;;;;;;;;4974566;28;20222;-75
2023/04/15 07:04:51;;;;;;;32.87;22.50;;;;;;;;;;4979010;28;20943;-78
2023/04/15 07:07:17;;;;;;;35.53;22.83;;;;;;;;;;4996251;28;20470;-78
2023/04/15 07:09:44;;;;;;;33.10;23.40;;;;;;;;;;4996304;28;20415;-78
2023/04/15 07:12:10;;;;;;;36.80;22.00;;;;;;;;;;4996155;28;20426;-79
2023/04/15 07:14:38;;;;;;;31.93;23.00;;;;;;;;;;4996295;28;20422;-78
2023/04/15 07:17:04;;;;;;;38.80;24.17;;;;;;;;;;4995792;28;20473;-78
2023/04/15 07:19:30;;;;;;;34.53;22.67;;;;;;;;;;4996261;28;20424;-78
2023/04/15 07:21:56;;;;;;;34.47;22.00;;;;;;;;;;4995214;28;20417;-78
2023/04/15 07:24:25;;;;;;;35.63;23.10;;;;;;;;;;4996028;28;20405;-78
2023/04/15 07:26:51;;;;;;;29.67;21.20;;;;;;;;;;4995943;28;20998;-78
2023/04/15 07:29:17;;;;;;;37.87;23.20;;;;;;;;;;4995910;28;20418;-78
2023/04/15 07:31:43;;;;;;;34.40;22.80;;;;;;;;;;4995619;28;20425;-79
2023/04/15 07:34:09;;;;;;;35.47;22.07;;;;;;;;;;4995853;28;20469;-78
2023/04/15 07:36:35;;;;;;;37.00;23.37;;;;;;;;;;4995851;28;20191;-79
2023/04/15 07:39:02;;;;;;;41.13;24.37;;;;;;;;;;4995677;28;20416;-79
2023/04/15 07:41:28;;;;;;;38.87;23.40;;;;;;;;;;4995820;28;20427;-79
2023/04/15 07:43:54;;;;;;;36.77;23.40;;;;;;;;;;4995702;28;20419;-79
2023/04/15 07:46:22;;;;;;;39.53;23.70;;;;;;;;;;4995217;28;20475;-79
2023/04/15 07:48:48;;;;;;;34.43;22.07;;;;;;;;;;4995680;28;20173;-75
2023/04/15 07:51:14;;;;;;;35.47;22.00;;;;;;;;;;4995564;28;20408;-75
2023/04/15 07:53:41;;;;;;;32.70;20.70;;;;;;;;;;4995560;28;20473;-79
2023/04/15 07:56:07;;;;;;;32.23;21.57;;;;;;;;;;4995416;28;20470;-79
2023/04/15 07:58:33;;;;;;;34.40;21.90;;;;;;;;;;4995327;28;20420;-77
2023/04/15 08:00:58;;;;;;;35.00;22.40;;;;;;;;;;4977643;28;20477;-78
2023/04/15 08:03:25;;;;;;;35.73;24.03;;;;;;;;;;4956398;28;20472;-75
2023/04/15 08:05:51;;;;;;;38.03;25.37;;;;;;;;;;4972281;28;20468;-77
2023/04/15 08:08:16;;;;;;;36.13;23.93;;;;;;;;;;4985796;28;20927;-76
2023/04/15 08:10:42;;;;;;;37.47;23.10;;;;;;;;;;4993349;28;20486;-76
2023/04/15 08:13:08;;;;;;;34.83;22.17;;;;;;;;;;4977703;28;20494;-75
2023/04/15 08:15:34;;;;;;;36.90;21.30;;;;;;;;;;4994697;28;20832;-75
2023/04/15 08:18:00;;;;;;;31.63;22.23;;;;;;;;;;4977467;28;20927;-76
2023/04/15 08:20:26;;;;;;;35.47;21.33;;;;;;;;;;4994657;28;20420;-78
2023/04/15 08:22:52;;;;;;;35.47;23.87;;;;;;;;;;4994671;28;20246;-77
2023/04/15 08:25:19;;;;;;;35.87;24.40;;;;;;;;;;4994729;28;20621;-75
2023/04/15 08:27:45;;;;;;;31.03;21.10;;;;;;;;;;4994799;28;20508;-76
2023/04/15 08:30:11;;;;;;;33.30;24.47;;;;;;;;;;4994334;28;20416;-76
2023/04/15 08:32:37;;;;;;;38.63;24.00;;;;;;;;;;4994614;28;20519;-76
2023/04/15 08:35:03;;;;;;;37.80;23.53;;;;;;;;;;4988716;28;20423;-76
2023/04/15 08:37:30;;;;;;;38.37;24.77;;;;;;;;;;4976963;28;20483;-75
2023/04/15 08:39:56;;;;;;;35.47;24.10;;;;;;;;;;4994641;28;20814;-77
2023/04/15 08:42:31;;;;;;;34.17;24.40;;;;;;;;;;4977002;28;20428;-76
2023/04/15 08:44:59;;;;;;;39.03;24.03;;;;;;;;;;4993961;28;20805;-76
2023/04/15 08:47:28;;;;;;;36.97;24.07;;;;;;;;;;4994338;28;20474;-75
2023/04/15 08:49:55;;;;;;;35.70;22.30;;;;;;;;;;4994516;28;20812;-77
2023/04/15 08:52:21;;;;;;;30.33;20.87;;;;;;;;;;4976922;28;20425;-76
2023/04/15 08:54:50;;;;;;;32.13;21.13;;;;;;;;;;4994178;28;20839;-76
2023/04/15 08:57:19;;;;;;;38.23;24.50;;;;;;;;;;4994153;28;20426;-76
2023/04/15 08:59:45;;;;;;;37.73;24.03;;;;;;;;;;4976343;28;20485;-78
2023/04/15 09:02:11;;;;;;;37.60;24.00;;;;;;;;;;4976410;28;20435;-78
2023/04/15 09:04:37;;;;;;;39.37;25.73;;;;;;;;;;4976801;28;20513;-78
2023/04/15 09:07:03;;;;;;;38.63;27.00;;;;;;;;;;4967165;28;20954;-77
2023/04/15 09:09:32;;;;;;;36.13;23.80;;;;;;;;;;4982610;28;20419;-80
2023/04/15 09:12:01;;;;;;;35.70;23.20;;;;;;;;;;4992898;28;20426;-79
2023/04/15 09:14:31;;;;;;;41.73;23.93;;;;;;;;;;4993864;28;20449;-79
2023/04/15 09:16:57;;;;;;;37.10;24.53;;;;;;;;;;4993977;28;20403;-78
2023/04/15 09:19:24;;;;;;;34.70;23.87;;;;;;;;;;4976392;28;20443;-78
2023/04/15 09:21:51;;;;;;;39.63;25.10;;;;;;;;;;4993804;28;20776;-79
2023/04/15 09:24:18;;;;;;;35.07;22.63;;;;;;;;;;4993787;28;20442;-79
2023/04/15 09:26:44;;;;;;;36.57;25.87;;;;;;;;;;4993668;28;20477;-78
2023/04/15 09:29:12;;;;;;;33.23;20.37;;;;;;;;;;4993700;28;20769;-78
2023/04/15 09:31:39;;;;;;;31.70;21.10;;;;;;;;;;4993346;28;20426;-78
2023/04/15 09:34:05;;;;;;;28.37;20.23;;;;;;;;;;4993559;28;20418;-78
2023/04/15 09:36:46;;;;;;;35.13;21.03;;;;;;;;;;4993635;28;20423;-78
2023/04/15 09:39:13;;;;;;;28.23;19.90;;;;;;;;;;4976193;28;20814;-78
2023/04/15 09:41:39;;;;;;;30.83;19.30;;;;;;;;;;4993622;28;20429;-78
2023/04/15 09:44:05;;;;;;;26.77;18.60;;;;;;;;;;4993080;28;20505;-78
2023/04/15 09:46:42;;;;;;;26.27;19.27;;;;;;;;;;4993121;28;20521;-78
2023/04/15 09:49:08;;;;;;;26.70;20.07;;;;;;;;;;4993519;28;20414;-78
2023/04/15 09:51:35;;;;;;;21.53;17.40;;;;;;;;;;4993436;28;20412;-77
2023/04/15 09:54:01;;;;;;;26.03;18.37;;;;;;;;;;4993522;28;20532;-76
2023/04/15 09:56:37;;;;;;;22.17;16.87;;;;;;;;;;4993461;28;20562;-79
2023/04/15 09:59:04;;;;;;;26.10;17.63;;;;;;;;;;4993459;28;20414;-77
2023/04/15 10:01:33;;;;;;;25.23;16.67;;;;;;;;;;4992033;28;20439;-79
2023/04/15 10:04:01;;;;;;;25.07;17.40;;;;;;;;;;4986713;28;20531;-78
2023/04/15 10:06:27;;;;;;;23.57;16.87;;;;;;;;;;4986804;28;20503;-79
2023/04/15 10:08:53;;;;;;;17.43;13.87;;;;;;;;;;4993224;28;20411;-79
2023/04/15 10:11:22;;;;;;;20.30;14.23;;;;;;;;;;4993353;28;20498;-78
2023/04/15 10:13:49;;;;;;;18.10;14.97;;;;;;;;;;4975908;28;20414;-79
2023/04/15 10:16:18;;;;;;;19.13;15.80;;;;;;;;;;4992880;28;20431;-78
2023/04/15 10:18:45;;;;;;;16.03;13.37;;;;;;;;;;4993230;28;20436;-79
2023/04/15 10:21:17;;;;;;;16.77;13.10;;;;;;;;;;4993263;28;20420;-78
2023/04/15 10:23:43;;;;;;;14.20;12.73;;;;;;;;;;4993133;28;20842;-78
2023/04/15 10:26:11;;;;;;;16.10;13.00;;;;;;;;;;4975347;28;20458;-79
2023/04/15 10:28:37;;;;;;;17.60;13.63;;;;;;;;;;4993302;28;20511;-78
2023/04/15 10:31:04;;;;;;;18.03;11.90;;;;;;;;;;4967978;28;20863;-77
2023/04/15 10:33:30;;;;;;;15.07;12.23;;;;;;;;;;4943424;28;20437;-78
2023/04/15 10:35:56;;;;;;;19.07;12.40;;;;;;;;;;4975680;28;20411;-78
2023/04/15 10:38:33;;;;;;;19.90;13.13;;;;;;;;;;4992882;28;20505;-79
2023/04/15 10:41:12;;;;;;;16.20;12.70;;;;;;;;;;4993014;28;20414;-78
2023/04/15 10:43:38;;;;;;;16.77;13.03;;;;;;;;;;4993087;28;20497;-79
2023/04/15 10:46:10;;;;;;;15.63;11.37;;;;;;;;;;4975131;28;20561;-79
2023/04/15 10:48:36;;;;;;;14.13;11.57;;;;;;;;;;4975297;28;20513;-79
2023/04/15 10:51:02;;;;;;;12.57;11.13;;;;;;;;;;4975540;28;20516;-79
2023/04/15 10:53:31;;;;;;;15.10;12.63;;;;;;;;;;4992958;28;20167;-79
2023/04/15 10:55:57;;;;;;;16.13;12.57;;;;;;;;;;4992901;28;20523;-78
2023/04/15 10:58:24;;;;;;;15.80;12.50;;;;;;;;;;4978792;28;20983;-78
2023/04/15 11:00:53;;;;;;;15.60;12.67;;;;;;;;;;4996030;28;20501;-78
2023/04/15 11:03:38;;;;;;;15.90;11.70;;;;;;;;;;4996233;28;20815;-78
2023/04/15 11:06:08;;;;;;;18.43;13.33;;;;;;;;;;4996258;28;20461;-78
2023/04/15 11:08:54;;;;;;;15.80;12.00;;;;;;;;;;4978771;28;20914;-79
2023/04/15 11:11:20;;;;;;;16.47;11.90;;;;;;;;;;4992025;28;20407;-81
2023/04/15 11:13:49;;;;;;;15.10;11.73;;;;;;;;;;4993825;28;20458;-79
2023/04/15 11:16:15;;;;;;;20.53;15.63;;;;;;;;;;4976720;28;20473;-80
2023/04/15 11:18:41;;;;;;;14.00;10.93;;;;;;;;;;4977681;28;20423;-80
2023/04/15 11:21:09;;;;;;;12.93;11.17;;;;;;;;;;4995107;28;20511;-80
2023/04/15 11:23:40;;;;;;;20.63;11.63;;;;;;;;;;4994960;28;20423;-81
2023/04/15 11:26:14;;;;;;;17.13;11.50;;;;;;;;;;4994826;28;20460;-83
2023/04/15 11:28:40;;;;;;;13.50;10.30;;;;;;;;;;4977417;28;20458;-83
2023/04/15 11:31:09;;;;;;;14.23;11.57;;;;;;;;;;4994069;28;20416;-81
2023/04/15 11:33:35;;;;;;;11.93;9.80;;;;;;;;;;4976341;28;20446;-86
2023/04/15 11:36:03;;;;;;;12.47;10.27;;;;;;;;;;4923090;28;20445;-83
2023/04/15 11:38:30;;;;;;;13.10;9.90;;;;;;;;;;4977717;28;20436;-89
2023/04/15 11:40:56;;;;;;;13.83;12.20;;;;;;;;;;4977249;28;20836;-82
2023/04/15 11:43:23;;;;;;;12.27;9.73;;;;;;;;;;4994679;28;20421;-82
2023/04/15 11:45:56;;;;;;;13.03;9.50;;;;;;;;;;4994296;28;20425;-87
2023/04/15 11:48:23;;;;;;;13.47;10.07;;;;;;;;;;4977163;28;20426;-82
2023/04/15 11:50:57;;;;;;;12.93;10.40;;;;;;;;;;4976839;28;20415;-83
2023/04/15 11:53:23;;;;;;;12.50;10.40;;;;;;;;;;4976963;28;20425;-85
2023/04/15 11:55:52;;;;;;;12.80;10.67;;;;;;;;;;4994171;28;20406;-85
2023/04/15 11:58:20;;;;;;;14.30;11.60;;;;;;;;;;4977004;28;20514;-83
2023/04/15 12:00:47;;;;;;;12.00;10.00;;;;;;;;;;4993731;28;20424;-82
2023/04/15 12:03:20;;;;;;;12.70;11.40;;;;;;;;;;4994228;28;20478;-81
2023/04/15 12:06:05;;;;;;;15.47;11.37;;;;;;;;;;4994108;28;20779;-80
2023/04/15 12:08:49;;;;;;;12.00;9.60;;;;;;;;;;4993755;28;20418;-81
2023/04/15 12:11:18;;;;;;;11.40;9.67;;;;;;;;;;4994106;28;20568;-82
2023/04/15 12:13:48;;;;;;;11.60;10.40;;;;;;;;;;4976611;28;20419;-82
2023/04/15 12:16:18;;;;;;;10.87;9.83;;;;;;;;;;4976122;28;20412;-83
2023/04/15 12:18:45;;;;;;;11.57;9.57;;;;;;;;;;4993627;28;20423;-82
2023/04/15 12:21:11;;;;;;;9.50;8.50;;;;;;;;;;4976683;28;20431;-82
2023/04/15 12:23:38;;;;;;;12.83;10.53;;;;;;;;;;4976480;28;20507;-83
2023/04/15 12:26:06;;;;;;;12.63;9.80;;;;;;;;;;4976128;28;20473;-79
2023/04/15 12:28:35;;;;;;;11.80;9.70;;;;;;;;;;4960284;28;20458;-84
2023/04/15 12:31:07;;;;;;;10.80;8.73;;;;;;;;;;4974144;28;20941;-80
2023/04/15 12:33:33;;;;;;;9.63;8.60;;;;;;;;;;4976198;28;20427;-79
2023/04/15 12:35:59;;;;;;;11.90;10.70;;;;;;;;;;4992596;28;20899;-84
2023/04/15 12:38:25;;;;;;;12.57;10.00;;;;;;;;;;4971226;28;20440;-84
2023/04/15 12:40:51;;;;;;;11.10;9.83;;;;;;;;;;4977279;28;20499;-84
2023/04/15 12:43:20;;;;;;;10.90;8.77;;;;;;;;;;4975316;28;20416;-81
2023/04/15 12:45:46;;;;;;;11.37;9.17;;;;;;;;;;4993173;28;20425;-79
2023/04/15 12:48:12;;;;;;;10.03;9.03;;;;;;;;;;4976330;28;20435;-79
2023/04/15 12:50:38;;;;;;;10.37;8.20;;;;;;;;;;4993107;28;20433;-79
2023/04/15 12:53:04;;;;;;;11.60;9.57;;;;;;;;;;4994054;28;20212;-79
2023/04/15 12:55:30;;;;;;;10.60;8.93;;;;;;;;;;4993546;28;20921;-78
2023/04/15 12:57:56;;;;;;;11.10;8.30;;;;;;;;;;4993674;28;20256;-79
2023/04/15 13:00:23;;;;;;;11.17;9.00;;;;;;;;;;4993261;28;20420;-80
2023/04/15 13:02:49;;;;;;;8.80;7.90;;;;;;;;;;4976610;28;20565;-79
2023/04/15 13:05:16;;;;;;;12.80;9.00;;;;;;;;;;4983594;28;20529;-78
2023/04/15 13:07:45;;;;;;;9.57;8.27;;;;;;;;;;4991358;28;20622;-79
2023/04/15 13:10:11;;;;;;;11.93;9.10;;;;;;;;;;4972131;28;20886;-80
2023/04/15 13:12:37;;;;;;;10.23;9.17;;;;;;;;;;4974368;28;20519;-78
2023/04/15 13:15:03;;;;;;;12.37;10.13;;;;;;;;;;4974059;28;20509;-79
2023/04/15 13:17:29;;;;;;;11.57;9.90;;;;;;;;;;4973220;28;20434;-79
2023/04/15 13:19:55;;;;;;;13.63;10.17;;;;;;;;;;4973678;28;20445;-79
2023/04/15 13:22:21;;;;;;;13.60;10.97;;;;;;;;;;4974188;28;20459;-79
2023/04/15 13:24:48;;;;;;;11.40;9.97;;;;;;;;;;4972865;28;20528;-79
2023/04/15 13:27:14;;;;;;;15.70;9.83;;;;;;;;;;4974148;28;20611;-80
2023/04/15 13:29:40;;;;;;;12.40;11.20;;;;;;;;;;4973886;28;20489;-79
2023/04/15 13:32:06;;;;;;;13.17;9.67;;;;;;;;;;4972785;28;20785;-79
2023/04/15 13:34:32;;;;;;;14.13;11.00;;;;;;;;;;4981268;28;20186;-80
2023/04/15 13:37:00;;;;;;;15.47;11.43;;;;;;;;;;4993611;28;20928;-80
2023/04/15 13:39:26;;;;;;;13.80;10.93;;;;;;;;;;4976141;28;20438;-80
2023/04/15 13:41:52;;;;;;;11.10;10.00;;;;;;;;;;4993637;28;20442;-80
2023/04/15 13:44:18;;;;;;;11.13;9.50;;;;;;;;;;4993307;28;20176;-80
2023/04/15 13:46:44;;;;;;;10.87;9.17;;;;;;;;;;4976042;28;20218;-79
2023/04/15 13:49:10;;;;;;;13.07;9.17;;;;;;;;;;4976064;28;20419;-80
2023/04/15 13:51:36;;;;;;;13.23;9.40;;;;;;;;;;4993267;28;20937;-80
2023/04/15 13:54:03;;;;;;;11.37;9.30;;;;;;;;;;4976091;28;20269;-79
2023/04/15 13:56:29;;;;;;;11.13;10.00;;;;;;;;;;4976093;28;20419;-79
2023/04/15 13:58:57;;;;;;;12.03;9.67;;;;;;;;;;4975636;28;20426;-80
2023/04/15 14:01:23;;;;;;;13.10;9.37;;;;;;;;;;4993473;28;20415;-79
2023/04/15 14:03:50;;;;;;;13.93;9.70;;;;;;;;;;4993066;28;20988;-80
2023/04/15 14:06:15;;;;;;;11.53;10.40;;;;;;;;;;4975713;28;20471;-80
2023/04/15 14:08:41;;;;;;;10.77;9.50;;;;;;;;;;4975902;28;20428;-79
2023/04/15 14:11:07;;;;;;;11.00;8.37;;;;;;;;;;4975846;28;20441;-79
2023/04/15 14:13:33;;;;;;;13.37;8.90;;;;;;;;;;4975741;28;20454;-79
2023/04/15 14:15:59;;;;;;;10.63;8.07;;;;;;;;;;4975366;28;20420;-80
2023/04/15 14:18:26;;;;;;;8.30;6.70;;;;;;;;;;4989589;28;20425;-79
2023/04/15 14:20:52;;;;;;;7.23;6.37;;;;;;;;;;4972198;28;20426;-79
2023/04/15 14:23:18;;;;;;;8.77;7.13;;;;;;;;;;4973786;28;20417;-79